Time;durP1;ratioP1;P1;durP2;ratioP2;P2;SDS_P1;SDS_P2;PMS_P1;PMS_P2;Temp;Humidity;BMP_temperature;BMP_pressure;BME280_temperature;BME280_humidity;BME280_pressure;Samples;Min_cycle;Max_cycle;Signal;HPM_P1;HPM_P2
2023/04/08 00:01:26;;;;;;;13.13;7.35;;;3.50;99.90;;;;;;5068742;28;20378;-65
2023/04/08 00:03:51;;;;;;;14.07;8.25;;;3.40;99.90;;;;;;5069329;28;20043;-65
2023/04/08 00:06:17;;;;;;;13.02;7.32;;;3.50;99.90;;;;;;5052551;28;20036;-65
2023/04/08 00:08:43;;;;;;;13.82;7.65;;;3.40;99.90;;;;;;5053222;28;20045;-64
2023/04/08 00:11:09;;;;;;;13.77;8.20;;;3.40;99.90;;;;;;5071463;28;20434;-65
2023/04/08 00:13:35;;;;;;;11.07;7.82;;;3.40;99.90;;;;;;5066676;28;20047;-64
2023/04/08 00:16:00;;;;;;;11.40;7.07;;;3.30;99.90;;;;;;5069917;28;20064;-65
2023/04/08 00:18:26;;;;;;;11.20;7.25;;;3.30;99.90;;;;;;5069388;28;20044;-64
2023/04/08 00:20:52;;;;;;;14.48;8.38;;;3.30;99.90;;;;;;5067277;28;20390;-65
2023/04/08 00:23:20;;;;;;;14.05;8.18;;;3.20;99.90;;;;;;5044676;28;20040;-65
2023/04/08 00:25:46;;;;;;;10.65;7.57;;;3.30;99.90;;;;;;5070342;28;20025;-65
2023/04/08 00:28:13;;;;;;;15.40;9.13;;;3.20;99.90;;;;;;5070843;28;20033;-65
2023/04/08 00:30:39;;;;;;;12.50;8.50;;;3.20;99.90;;;;;;5069779;28;20033;-65
2023/04/08 00:33:04;;;;;;;12.10;8.55;;;3.10;99.90;;;;;;5056036;28;20036;-65
2023/04/08 00:35:30;;;;;;;12.63;8.20;;;3.10;99.90;;;;;;5065625;28;20106;-65
2023/04/08 00:37:56;;;;;;;12.95;8.55;;;3.00;99.90;;;;;;5068402;28;20064;-65
2023/04/08 00:40:21;;;;;;;13.18;8.80;;;3.00;99.90;;;;;;5069449;28;20028;-64
2023/04/08 00:42:47;;;;;;;13.55;8.90;;;3.00;99.90;;;;;;5050575;28;20482;-64
2023/04/08 00:45:13;;;;;;;14.43;9.77;;;3.00;99.90;;;;;;5070183;28;20059;-65
2023/04/08 00:47:39;;;;;;;12.63;8.68;;;2.90;99.90;;;;;;5067417;28;20127;-65
2023/04/08 00:50:09;;;;;;;17.08;9.15;;;2.80;99.90;;;;;;5070113;28;20074;-65
2023/04/08 00:52:35;;;;;;;15.45;9.15;;;2.80;99.90;;;;;;5070035;28;20054;-64
2023/04/08 00:55:01;;;;;;;15.85;8.93;;;2.80;99.90;;;;;;5068964;28;20028;-65
2023/04/08 00:57:27;;;;;;;15.38;9.70;;;2.70;99.90;;;;;;5068950;28;20098;-65
2023/04/08 00:59:53;;;;;;;14.93;9.45;;;2.70;99.90;;;;;;5067767;28;20585;-64
2023/04/08 01:02:38;;;;;;;14.38;10.07;;;2.70;99.90;;;;;;5068890;28;20119;-65
2023/04/08 01:05:20;;;;;;;16.30;10.25;;;2.60;99.90;;;;;;5069369;28;20040;-65
2023/04/08 01:07:48;;;;;;;14.98;10.05;;;2.60;99.90;;;;;;5058899;28;20059;-64
2023/04/08 01:10:27;;;;;;;15.65;10.25;;;2.50;99.90;;;;;;5067712;28;20040;-64
2023/04/08 01:12:56;;;;;;;17.30;9.82;;;2.50;99.90;;;;;;5051129;28;20059;-65
2023/04/08 01:15:25;;;;;;;19.17;10.10;;;2.50;99.90;;;;;;5067377;28;20087;-64
2023/04/08 01:17:56;;;;;;;16.13;10.45;;;2.50;99.90;;;;;;5064971;28;20041;-64
2023/04/08 01:20:24;;;;;;;20.40;10.13;;;2.50;99.90;;;;;;5068627;28;20040;-65
2023/04/08 01:23:19;;;;;;;15.77;9.70;;;2.50;99.90;;;;;;5069639;28;20072;-64
2023/04/08 01:25:58;;;;;;;16.20;10.18;;;2.40;99.90;;;;;;5069090;28;20048;-64
2023/04/08 01:28:28;;;;;;;17.73;9.82;;;2.40;99.90;;;;;;5069497;28;20090;-65
2023/04/08 01:30:56;;;;;;;20.55;12.05;;;2.40;99.90;;;;;;5064870;28;20127;-65
2023/04/08 01:33:23;;;;;;;19.23;10.82;;;2.40;99.90;;;;;;5066776;28;20044;-65
2023/04/08 01:35:51;;;;;;;17.80;11.10;;;2.40;99.90;;;;;;5069586;28;20068;-64
2023/04/08 01:38:19;;;;;;;15.60;10.48;;;2.30;99.90;;;;;;5064542;28;20055;-64
2023/04/08 01:40:46;;;;;;;16.85;10.65;;;2.30;99.90;;;;;;5067983;28;20044;-65
2023/04/08 01:43:16;;;;;;;19.00;11.43;;;2.30;99.90;;;;;;5069084;28;20045;-64
2023/04/08 01:45:46;;;;;;;19.77;11.02;;;2.30;99.90;;;;;;5065064;28;20041;-64
2023/04/08 01:48:13;;;;;;;18.25;10.73;;;2.20;99.90;;;;;;5069355;28;20554;-65
2023/04/08 01:50:42;;;;;;;20.70;11.05;;;2.20;99.90;;;;;;5065762;28;20105;-65
2023/04/08 01:53:09;;;;;;;20.92;12.00;;;2.20;99.90;;;;;;5062600;28;20040;-64
2023/04/08 01:55:36;;;;;;;17.77;11.43;;;2.20;99.90;;;;;;5050749;28;20075;-64
2023/04/08 01:58:06;;;;;;;16.25;11.05;;;2.20;99.90;;;;;;5067386;28;20056;-65
2023/04/08 02:00:33;;;;;;;20.65;11.65;;;2.20;99.90;;;;;;5068854;28;20162;-64
2023/04/08 02:03:01;;;;;;;21.05;11.77;;;2.10;99.90;;;;;;5067158;28;20044;-64
2023/04/08 02:05:27;;;;;;;17.85;11.55;;;2.10;99.90;;;;;;5069146;28;20081;-64
2023/04/08 02:07:53;;;;;;;21.52;11.68;;;2.10;99.90;;;;;;5069165;28;20747;-64
2023/04/08 02:10:19;;;;;;;20.23;12.10;;;2.10;99.90;;;;;;5069069;28;20047;-65
2023/04/08 02:12:45;;;;;;;17.95;11.45;;;2.10;99.90;;;;;;5067324;28;20037;-65
2023/04/08 02:15:12;;;;;;;21.15;12.55;;;2.00;99.90;;;;;;5067601;28;20084;-64
2023/04/08 02:17:49;;;;;;;21.63;12.75;;;2.00;99.90;;;;;;5068714;28;20151;-64
2023/04/08 02:20:22;;;;;;;21.95;13.07;;;2.00;99.90;;;;;;5069186;28;20078;-64
2023/04/08 02:22:49;;;;;;;21.00;13.13;;;2.10;99.90;;;;;;5066094;28;20032;-65
2023/04/08 02:25:16;;;;;;;18.65;12.23;;;2.00;99.90;;;;;;5049564;28;20394;-64
2023/04/08 02:27:44;;;;;;;23.35;13.05;;;2.00;99.90;;;;;;5069092;28;20048;-65
2023/04/08 02:30:11;;;;;;;24.95;13.15;;;2.00;99.90;;;;;;5069190;28;20044;-65
2023/04/08 02:32:37;;;;;;;21.88;13.20;;;1.90;99.90;;;;;;5067906;28;20536;-64
2023/04/08 02:35:04;;;;;;;25.88;14.43;;;1.90;99.90;;;;;;5068752;28;20414;-65
2023/04/08 02:37:31;;;;;;;23.67;13.73;;;1.90;99.90;;;;;;5058271;28;20037;-64
2023/04/08 02:39:57;;;;;;;23.05;13.88;;;1.90;99.90;;;;;;5068843;28;20032;-65
2023/04/08 02:42:23;;;;;;;23.00;13.55;;;1.90;99.90;;;;;;5067446;28;20501;-65
2023/04/08 02:44:50;;;;;;;24.75;14.88;;;1.90;99.90;;;;;;5069652;28;20040;-64
2023/04/08 02:47:16;;;;;;;25.77;15.18;;;1.90;99.90;;;;;;5066846;28;20490;-64
2023/04/08 02:49:43;;;;;;;23.92;12.93;;;1.90;99.90;;;;;;5070661;28;20080;-64
2023/04/08 02:52:09;;;;;;;23.40;14.98;;;1.80;99.90;;;;;;5072430;28;20053;-65
2023/04/08 02:54:34;;;;;;;23.88;14.55;;;1.80;99.90;;;;;;5072627;28;20036;-65
2023/04/08 02:57:00;;;;;;;23.92;13.98;;;1.80;99.90;;;;;;5045350;28;20040;-64
2023/04/08 02:59:26;;;;;;;24.10;13.65;;;1.80;99.90;;;;;;5072538;28;20048;-64
2023/04/08 03:01:53;;;;;;;26.73;15.38;;;1.80;99.90;;;;;;5069270;28;20043;-64
2023/04/08 03:04:19;;;;;;;32.60;16.42;;;1.80;99.90;;;;;;5064695;28;20042;-64
2023/04/08 03:06:44;;;;;;;26.70;15.55;;;1.80;99.90;;;;;;5087359;28;20033;-64
2023/04/08 03:09:10;;;;;;;26.70;16.02;;;1.80;99.90;;;;;;5087344;28;20489;-64
2023/04/08 03:11:36;;;;;;;25.05;15.27;;;1.80;99.90;;;;;;5070591;28;20039;-65
2023/04/08 03:14:01;;;;;;;28.50;15.63;;;1.80;99.90;;;;;;5072235;28;20040;-64
2023/04/08 03:16:27;;;;;;;27.85;15.10;;;1.70;99.90;;;;;;5069746;28;20046;-64
2023/04/08 03:18:53;;;;;;;28.92;15.32;;;1.70;99.90;;;;;;5071399;28;20064;-65
2023/04/08 03:21:19;;;;;;;28.63;15.65;;;1.70;99.90;;;;;;5060427;28;20136;-64
2023/04/08 03:23:44;;;;;;;26.92;15.55;;;1.70;99.90;;;;;;5062976;28;20047;-65
2023/04/08 03:26:10;;;;;;;24.02;15.30;;;1.70;99.90;;;;;;5071522;28;20044;-65
2023/04/08 03:28:36;;;;;;;24.20;14.77;;;1.70;99.90;;;;;;5071850;28;20076;-65
2023/04/08 03:31:05;;;;;;;27.40;14.93;;;1.60;99.90;;;;;;5069181;28;20037;-64
2023/04/08 03:33:31;;;;;;;26.45;15.88;;;1.60;99.90;;;;;;5071944;28;20171;-64
2023/04/08 03:35:57;;;;;;;28.60;15.45;;;1.60;99.90;;;;;;5069599;28;20127;-65
2023/04/08 03:38:23;;;;;;;31.48;16.65;;;1.60;99.90;;;;;;5071974;28;20036;-64
2023/04/08 03:40:48;;;;;;;26.48;15.70;;;1.60;99.90;;;;;;5071629;28;20567;-64
2023/04/08 03:43:14;;;;;;;28.63;16.00;;;1.50;99.90;;;;;;5071375;28;20131;-64
2023/04/08 03:45:40;;;;;;;29.73;17.30;;;1.50;99.90;;;;;;5070638;28;20028;-64
2023/04/08 03:48:06;;;;;;;36.63;18.17;;;1.50;99.90;;;;;;5066756;28;20493;-64
2023/04/08 03:50:32;;;;;;;26.63;15.20;;;1.50;99.90;;;;;;5067065;28;20421;-65
2023/04/08 03:52:58;;;;;;;27.60;17.38;;;1.60;99.90;;;;;;5069405;28;20051;-64
2023/04/08 03:55:23;;;;;;;27.92;16.10;;;1.60;99.90;;;;;;5071052;28;20477;-64
2023/04/08 03:57:49;;;;;;;30.45;16.98;;;1.60;99.90;;;;;;5070476;28;20401;-64
2023/04/08 04:00:15;;;;;;;28.38;17.30;;;1.60;99.90;;;;;;5068758;28;20059;-64
2023/04/08 04:02:41;;;;;;;30.92;17.15;;;1.70;99.90;;;;;;5071003;28;20032;-65
2023/04/08 04:05:07;;;;;;;31.02;17.90;;;1.70;99.90;;;;;;5064948;28;20389;-64
2023/04/08 04:07:32;;;;;;;30.38;16.42;;;1.70;99.90;;;;;;5068252;28;20122;-64
2023/04/08 04:09:58;;;;;;;28.65;16.30;;;1.80;99.90;;;;;;5059582;28;20040;-64
2023/04/08 04:12:24;;;;;;;30.05;16.25;;;1.80;99.90;;;;;;5066747;28;20123;-64
2023/04/08 04:14:50;;;;;;;28.60;16.63;;;1.80;99.90;;;;;;5069409;28;20044;-65
2023/04/08 04:17:15;;;;;;;27.92;17.15;;;1.90;99.90;;;;;;5066983;28;20036;-64
2023/04/08 04:19:41;;;;;;;30.92;17.48;;;1.90;99.90;;;;;;5070674;28;20520;-64
2023/04/08 04:22:07;;;;;;;28.90;17.02;;;1.80;99.90;;;;;;5085175;28;20041;-64
2023/04/08 04:24:33;;;;;;;32.83;17.00;;;1.90;99.90;;;;;;5070895;28;20037;-64
2023/04/08 04:26:59;;;;;;;29.63;16.75;;;1.90;99.90;;;;;;5070520;28;20028;-64
2023/04/08 04:29:24;;;;;;;37.95;18.38;;;2.00;99.90;;;;;;5066542;28;20101;-64
2023/04/08 04:31:50;;;;;;;33.80;16.67;;;1.90;99.90;;;;;;5068501;28;20312;-64
2023/04/08 04:34:16;;;;;;;30.13;15.95;;;2.00;99.90;;;;;;5068762;28;20064;-65
2023/04/08 04:36:42;;;;;;;32.92;17.27;;;2.00;99.90;;;;;;5070267;28;20485;-64
2023/04/08 04:39:08;;;;;;;29.35;16.42;;;2.10;99.90;;;;;;5059920;28;20037;-64
2023/04/08 04:41:37;;;;;;;28.85;17.13;;;2.00;99.90;;;;;;5070466;28;20039;-64
2023/04/08 04:44:03;;;;;;;32.47;17.70;;;2.00;99.90;;;;;;5065117;28;20040;-64
2023/04/08 04:46:29;;;;;;;30.58;16.35;;;2.10;99.90;;;;;;5069362;28;20427;-64
2023/04/08 04:48:55;;;;;;;34.85;17.88;;;2.10;99.90;;;;;;5070233;28;20045;-64
2023/04/08 04:51:21;;;;;;;33.97;18.10;;;2.10;99.90;;;;;;5069786;28;20139;-64
2023/04/08 04:53:48;;;;;;;30.17;16.45;;;2.20;99.90;;;;;;5069946;28;20098;-64
2023/04/08 04:56:14;;;;;;;34.22;18.23;;;2.20;99.90;;;;;;5068798;28;20036;-65
2023/04/08 04:58:40;;;;;;;39.05;19.83;;;2.20;99.90;;;;;;5068258;28;20547;-64
2023/04/08 05:01:06;;;;;;;34.00;17.48;;;2.30;99.90;;;;;;5069649;28;20032;-64
2023/04/08 05:03:32;;;;;;;35.67;18.05;;;2.30;99.90;;;;;;5083136;28;20037;-64
2023/04/08 05:05:58;;;;;;;32.95;17.75;;;2.40;99.90;;;;;;5049706;28;20060;-64
2023/04/08 05:08:23;;;;;;;37.85;18.95;;;2.50;99.90;;;;;;5066380;28;20544;-64
2023/04/08 05:10:49;;;;;;;33.97;17.38;;;2.50;99.90;;;;;;5057893;28;20037;-64
2023/04/08 05:13:16;;;;;;;28.42;16.73;;;2.50;99.90;;;;;;5069781;28;20507;-64
2023/04/08 05:15:42;;;;;;;35.45;17.70;;;2.60;99.90;;;;;;5069450;28;20516;-65
2023/04/08 05:18:08;;;;;;;29.50;16.10;;;2.60;99.90;;;;;;5069543;28;20494;-64
2023/04/08 05:20:34;;;;;;;33.00;17.38;;;2.60;99.90;;;;;;5085063;28;20078;-64
2023/04/08 05:22:59;;;;;;;34.05;16.45;;;2.60;99.90;;;;;;5081871;28;20032;-65
2023/04/08 05:25:25;;;;;;;32.20;17.30;;;2.60;99.90;;;;;;5084218;28;20039;-65
2023/04/08 05:27:51;;;;;;;30.00;17.38;;;2.60;99.90;;;;;;5067673;28;20036;-64
2023/04/08 05:30:17;;;;;;;33.40;17.25;;;2.50;99.90;;;;;;5067671;28;20536;-65
2023/04/08 05:32:43;;;;;;;31.58;17.55;;;2.50;99.90;;;;;;5062603;28;20758;-64
2023/04/08 05:35:09;;;;;;;34.95;17.35;;;2.50;99.90;;;;;;5069449;28;20116;-64
2023/04/08 05:37:35;;;;;;;35.55;17.25;;;2.50;99.90;;;;;;5065354;28;20163;-64
2023/04/08 05:40:01;;;;;;;34.25;17.00;;;2.50;99.90;;;;;;5079201;28;20044;-65
2023/04/08 05:42:26;;;;;;;31.42;17.35;;;2.50;99.90;;;;;;5082439;28;20183;-64
2023/04/08 05:44:52;;;;;;;38.50;18.00;;;2.60;99.90;;;;;;5069484;28;20048;-64
2023/04/08 05:47:18;;;;;;;36.75;19.02;;;2.70;99.90;;;;;;5069267;28;20040;-64
2023/04/08 05:49:43;;;;;;;36.53;17.88;;;2.70;99.90;;;;;;5069049;28;20056;-64
2023/04/08 05:52:09;;;;;;;38.47;18.83;;;2.70;99.90;;;;;;5068769;28;20169;-64
2023/04/08 05:54:35;;;;;;;32.60;17.65;;;2.80;99.90;;;;;;5060947;28;20106;-65
2023/04/08 05:57:01;;;;;;;32.65;18.13;;;2.90;99.90;;;;;;5067762;28;20508;-65
2023/04/08 05:59:26;;;;;;;36.13;18.55;;;2.90;99.90;;;;;;5066678;28;20032;-64
2023/04/08 06:01:54;;;;;;;37.30;19.35;;;3.00;99.90;;;;;;5069465;28;20039;-65
2023/04/08 06:04:20;;;;;;;45.47;22.13;;;3.10;99.90;;;;;;5067640;28;20059;-64
2023/04/08 06:06:45;;;;;;;43.28;19.73;;;3.30;99.90;;;;;;5065615;28;20040;-64
2023/04/08 06:09:11;;;;;;;35.70;18.17;;;3.40;99.90;;;;;;5068263;28;20033;-64
2023/04/08 06:11:37;;;;;;;42.47;19.27;;;3.60;99.90;;;;;;5063656;28;20417;-64
2023/04/08 06:14:02;;;;;;;34.28;17.42;;;3.70;99.90;;;;;;5037312;28;20171;-64
2023/04/08 06:16:28;;;;;;;37.45;18.08;;;3.70;99.90;;;;;;5054464;28;20033;-65
2023/04/08 06:18:54;;;;;;;39.85;17.70;;;3.80;99.90;;;;;;5082856;28;20028;-65
2023/04/08 06:21:20;;;;;;;33.22;17.90;;;3.90;99.90;;;;;;5072525;28;20064;-64
2023/04/08 06:23:46;;;;;;;36.78;17.58;;;4.00;99.90;;;;;;5071272;28;20083;-65
2023/04/08 06:26:12;;;;;;;36.13;18.05;;;4.10;99.90;;;;;;5070681;28;20486;-65
2023/04/08 06:28:38;;;;;;;36.38;18.63;;;4.20;99.90;;;;;;5072703;28;20048;-64
2023/04/08 06:31:04;;;;;;;36.25;18.67;;;4.40;99.90;;;;;;5069721;28;20102;-65
2023/04/08 06:33:30;;;;;;;35.03;18.20;;;4.50;99.90;;;;;;5068700;28;20036;-64
2023/04/08 06:36:02;;;;;;;38.70;18.05;;;4.60;99.90;;;;;;5072935;28;20316;-65
2023/04/08 06:38:28;;;;;;;36.08;19.48;;;4.80;99.90;;;;;;5070817;28;20520;-65
2023/04/08 06:40:55;;;;;;;33.97;17.70;;;4.90;99.90;;;;;;5088116;28;20063;-64
2023/04/08 06:43:21;;;;;;;31.75;16.88;;;5.00;99.90;;;;;;5070301;28;20036;-65
2023/04/08 06:45:46;;;;;;;33.53;18.05;;;5.00;99.90;;;;;;5070872;28;20090;-64
2023/04/08 06:48:12;;;;;;;32.35;17.75;;;5.10;99.90;;;;;;5072586;28;20037;-64
2023/04/08 06:50:38;;;;;;;33.28;17.13;;;5.00;99.90;;;;;;5070277;28;20052;-65
2023/04/08 06:53:04;;;;;;;36.78;18.20;;;4.90;99.90;;;;;;5072735;28;20066;-65
2023/04/08 06:55:30;;;;;;;32.83;17.52;;;4.90;99.90;;;;;;5072235;28;20549;-64
2023/04/08 06:57:55;;;;;;;29.98;16.33;;;4.90;99.90;;;;;;5068860;28;20940;-65
2023/04/08 07:00:21;;;;;;;33.33;17.73;;;4.90;99.90;;;;;;5062688;28;20098;-65
2023/04/08 07:02:47;;;;;;;29.65;16.55;;;4.90;99.90;;;;;;5071082;28;20032;-65
2023/04/08 07:05:12;;;;;;;35.25;17.85;;;5.10;99.90;;;;;;5087290;28;20489;-65
2023/04/08 07:07:38;;;;;;;32.38;17.80;;;5.30;99.90;;;;;;5070015;28;20051;-65
2023/04/08 07:10:04;;;;;;;33.58;17.35;;;5.40;99.90;;;;;;5071873;28;20039;-65
2023/04/08 07:12:30;;;;;;;32.17;16.60;;;5.50;99.90;;;;;;5070948;28;20047;-65
2023/04/08 07:14:56;;;;;;;46.00;17.92;;;5.60;99.90;;;;;;5072159;28;20052;-65
2023/04/08 07:17:21;;;;;;;33.63;15.70;;;5.60;99.90;;;;;;5068770;28;20037;-65
2023/04/08 07:19:48;;;;;;;29.83;15.70;;;5.70;99.90;;;;;;5071986;28;20025;-65
2023/04/08 07:22:13;;;;;;;26.98;15.32;;;5.80;99.90;;;;;;5070829;28;20493;-65
2023/04/08 07:24:41;;;;;;;25.35;14.50;;;5.90;99.90;;;;;;5071766;28;20036;-66
2023/04/08 07:27:08;;;;;;;24.52;15.52;;;6.10;99.90;;;;;;5068486;28;20124;-66
2023/04/08 07:29:33;;;;;;;24.05;14.85;;;6.90;99.90;;;;;;5069319;28;20381;-67
2023/04/08 07:31:59;;;;;;;24.52;14.48;;;7.70;99.90;;;;;;5066306;28;20040;-67
2023/04/08 07:34:25;;;;;;;22.35;13.82;;;8.30;99.90;;;;;;5051999;28;20047;-66
2023/04/08 07:36:51;;;;;;;21.52;14.88;;;9.20;99.90;;;;;;5067251;28;20048;-67
2023/04/08 07:39:16;;;;;;;22.58;14.82;;;9.70;99.90;;;;;;5071431;28;20047;-67
2023/04/08 07:41:42;;;;;;;21.77;13.75;;;10.20;99.90;;;;;;5071546;28;20036;-67
2023/04/08 07:44:08;;;;;;;19.73;14.23;;;10.70;99.90;;;;;;5066980;28;20317;-67
2023/04/08 07:46:37;;;;;;;19.65;13.40;;;11.20;99.90;;;;;;5071422;28;20094;-67
2023/04/08 07:49:03;;;;;;;20.48;14.45;;;11.30;99.90;;;;;;5069874;28;20123;-67
2023/04/08 07:51:29;;;;;;;20.92;14.45;;;11.30;99.90;;;;;;5069292;28;20582;-67
2023/04/08 07:53:54;;;;;;;20.45;14.35;;;11.60;99.90;;;;;;5069604;28;20522;-67
2023/04/08 07:56:21;;;;;;;28.88;14.52;;;11.80;99.90;;;;;;5068315;28;20042;-67
2023/04/08 07:58:47;;;;;;;21.35;14.10;;;11.00;99.90;;;;;;5069540;28;20040;-66
2023/04/08 08:01:20;;;;;;;22.23;14.40;;;10.30;99.90;;;;;;5069135;28;20574;-66
2023/04/08 08:03:46;;;;;;;20.17;13.55;;;9.70;99.90;;;;;;5070956;28;20062;-66
2023/04/08 08:06:12;;;;;;;19.65;13.82;;;9.30;99.90;;;;;;5070902;28;20574;-66
2023/04/08 08:08:38;;;;;;;23.30;13.45;;;8.60;99.90;;;;;;5069031;28;20399;-66
2023/04/08 08:11:04;;;;;;;19.98;12.40;;;8.20;99.90;;;;;;5051871;28;20047;-66
2023/04/08 08:13:30;;;;;;;20.38;13.07;;;8.10;99.90;;;;;;5069498;28;20028;-67
2023/04/08 08:15:56;;;;;;;22.17;13.27;;;8.30;99.90;;;;;;5086027;28;20028;-66
2023/04/08 08:18:22;;;;;;;21.60;14.48;;;8.90;99.90;;;;;;5070743;28;20041;-66
2023/04/08 08:20:47;;;;;;;17.83;12.20;;;8.80;99.90;;;;;;5066670;28;20111;-67
2023/04/08 08:23:13;;;;;;;19.65;11.98;;;8.70;99.90;;;;;;5068804;28;20040;-67
2023/04/08 08:25:39;;;;;;;20.50;12.18;;;8.40;99.90;;;;;;5070343;28;20549;-67
2023/04/08 08:28:05;;;;;;;17.65;11.93;;;8.00;99.90;;;;;;5068647;28;20044;-67
2023/04/08 08:30:30;;;;;;;18.85;12.02;;;7.90;99.90;;;;;;5070707;28;20154;-66
2023/04/08 08:32:57;;;;;;;18.25;11.88;;;7.80;99.90;;;;;;5070878;28;20123;-66
2023/04/08 08:35:24;;;;;;;20.40;11.73;;;7.80;99.90;;;;;;5070446;28;20048;-67
2023/04/08 08:37:50;;;;;;;16.95;10.98;;;7.90;99.90;;;;;;5044722;28;20045;-66
2023/04/08 08:40:16;;;;;;;18.20;11.70;;;7.90;99.90;;;;;;5070500;28;20389;-67
2023/04/08 08:42:49;;;;;;;22.23;12.80;;;7.80;99.90;;;;;;5069281;28;20451;-66
2023/04/08 08:45:15;;;;;;;20.08;12.55;;;7.80;99.90;;;;;;5070139;28;20040;-66
2023/04/08 08:47:40;;;;;;;18.77;12.52;;;7.80;99.90;;;;;;5051860;28;20044;-66
2023/04/08 08:50:07;;;;;;;17.50;10.93;;;7.80;99.90;;;;;;5069143;28;20063;-66
2023/04/08 08:52:33;;;;;;;18.48;12.38;;;7.90;99.90;;;;;;5081422;28;20033;-66
2023/04/08 08:54:59;;;;;;;15.43;11.32;;;8.20;99.90;;;;;;5068135;28;20520;-66
2023/04/08 08:57:24;;;;;;;17.08;10.88;;;8.50;99.90;;;;;;5069068;28;20047;-66
2023/04/08 08:59:50;;;;;;;16.95;11.43;;;8.60;99.90;;;;;;5051684;28;20560;-66
2023/04/08 09:02:26;;;;;;;16.75;11.25;;;8.70;99.90;;;;;;5071577;28;20041;-66
2023/04/08 09:04:57;;;;;;;17.25;11.43;;;8.70;99.90;;;;;;5069878;28;20502;-66
2023/04/08 09:07:26;;;;;;;17.65;11.73;;;8.50;99.90;;;;;;5068483;28;20059;-67
2023/04/08 09:09:53;;;;;;;18.95;12.13;;;8.40;99.90;;;;;;5063981;28;20080;-67
2023/04/08 09:12:19;;;;;;;18.50;13.25;;;8.30;99.90;;;;;;5068929;28;20048;-67
2023/04/08 09:14:45;;;;;;;16.73;12.32;;;8.10;99.90;;;;;;5068403;28;20419;-66
2023/04/08 09:17:11;;;;;;;17.30;12.05;;;8.00;99.90;;;;;;5069934;28;20032;-63
2023/04/08 09:19:37;;;;;;;18.50;13.15;;;8.00;99.90;;;;;;5067833;28;20535;-64
2023/04/08 09:22:08;;;;;;;21.83;13.45;;;8.10;99.90;;;;;;5067849;28;20040;-64
2023/04/08 09:24:34;;;;;;;22.05;14.23;;;8.00;99.90;;;;;;5076154;28;20033;-66
2023/04/08 09:27:00;;;;;;;22.63;13.50;;;8.10;99.90;;;;;;5066223;28;20040;-66
2023/04/08 09:29:26;;;;;;;20.38;13.93;;;8.20;99.90;;;;;;5050946;28;20040;-66
2023/04/08 09:31:57;;;;;;;21.23;14.25;;;8.30;99.90;;;;;;5067655;28;20040;-66
2023/04/08 09:34:24;;;;;;;24.52;15.10;;;8.30;99.90;;;;;;5069700;28;20106;-66
2023/04/08 09:36:51;;;;;;;23.40;15.73;;;8.30;99.90;;;;;;5069679;28;20035;-66
2023/04/08 09:39:17;;;;;;;21.42;15.50;;;8.30;99.90;;;;;;5067574;28;20112;-66
2023/04/08 09:41:44;;;;;;;23.80;15.50;;;8.20;99.90;;;;;;5068248;28;20032;-67
2023/04/08 09:44:10;;;;;;;22.98;15.07;;;8.10;99.90;;;;;;5065243;28;20451;-66
2023/04/08 09:46:46;;;;;;;22.88;15.43;;;8.10;99.90;;;;;;5063248;28;20024;-66
2023/04/08 09:49:17;;;;;;;25.17;15.43;;;8.10;99.90;;;;;;5069859;28;20062;-66
2023/04/08 09:51:56;;;;;;;25.60;15.90;;;8.00;99.90;;;;;;5067286;28;20544;-67
2023/04/08 09:54:29;;;;;;;23.40;15.10;;;8.00;99.90;;;;;;5067979;28;20066;-67
2023/04/08 09:57:03;;;;;;;23.17;14.43;;;8.00;99.90;;;;;;5067307;28;20500;-66
2023/04/08 09:59:33;;;;;;;23.80;14.63;;;8.10;99.90;;;;;;5066082;28;20127;-66
2023/04/08 10:02:03;;;;;;;22.63;13.98;;;8.20;99.90;;;;;;5069165;28;20756;-67
2023/04/08 10:04:34;;;;;;;22.70;13.18;;;8.30;99.90;;;;;;5052482;28;20088;-67
2023/04/08 10:07:05;;;;;;;19.48;12.75;;;8.40;99.90;;;;;;5069005;28;20040;-67
2023/04/08 10:09:32;;;;;;;23.38;13.48;;;8.40;99.90;;;;;;5064144;28;20051;-64
2023/04/08 10:11:58;;;;;;;20.25;13.98;;;8.50;99.90;;;;;;5069485;28;20048;-64
2023/04/08 10:14:27;;;;;;;19.25;13.73;;;8.70;99.90;;;;;;5051128;28;20068;-65
2023/04/08 10:17:34;;;;;;;22.55;14.52;;;8.80;99.90;;;;;;5069215;28;20032;-64
2023/04/08 10:20:00;;;;;;;19.88;11.68;;;8.80;99.90;;;;;;5066482;28;20052;-64
2023/04/08 10:22:28;;;;;;;19.92;13.30;;;8.80;99.90;;;;;;5068338;28;20109;-65
2023/04/08 10:25:16;;;;;;;20.48;12.60;;;8.70;99.90;;;;;;5068392;28;20463;-64
2023/04/08 10:27:43;;;;;;;17.83;12.25;;;8.70;99.90;;;;;;5048766;28;20044;-65
2023/04/08 10:30:27;;;;;;;17.52;11.05;;;8.70;99.90;;;;;;5068946;28;20489;-65
2023/04/08 10:32:55;;;;;;;18.00;11.73;;;8.80;99.90;;;;;;5067196;28;20377;-65
2023/04/08 10:35:41;;;;;;;18.95;12.65;;;8.90;99.90;;;;;;5069074;28;20037;-65
2023/04/08 10:38:07;;;;;;;17.50;11.40;;;9.10;99.90;;;;;;5068872;28;20037;-64
2023/04/08 10:40:43;;;;;;;17.48;11.90;;;9.20;99.90;;;;;;5066039;28;20129;-65
2023/04/08 10:43:10;;;;;;;19.95;12.40;;;9.20;99.90;;;;;;5069183;28;20043;-65
2023/04/08 10:45:36;;;;;;;18.70;11.73;;;9.20;99.90;;;;;;5069206;28;20162;-65
2023/04/08 10:48:24;;;;;;;18.75;12.45;;;9.20;99.90;;;;;;5066757;28;20043;-64
2023/04/08 10:51:09;;;;;;;19.85;12.55;;;9.30;99.90;;;;;;5066863;28;20063;-65
2023/04/08 10:53:36;;;;;;;17.10;12.38;;;9.30;99.90;;;;;;5066677;28;20485;-65
2023/04/08 10:56:05;;;;;;;22.48;11.95;;;9.30;99.90;;;;;;5060636;28;20148;-65
2023/04/08 10:58:31;;;;;;;17.02;11.98;;;9.40;99.90;;;;;;5068965;28;20037;-65
2023/04/08 11:01:06;;;;;;;17.73;12.20;;;9.40;99.90;;;;;;5066876;28;20033;-64
2023/04/08 11:03:35;;;;;;;18.83;12.82;;;9.50;99.90;;;;;;5067859;28;20037;-65
2023/04/08 11:06:02;;;;;;;21.05;14.32;;;9.50;99.90;;;;;;5070175;28;20409;-65
2023/04/08 11:08:29;;;;;;;21.13;13.27;;;9.50;99.90;;;;;;5085304;28;20047;-65
2023/04/08 11:10:55;;;;;;;21.60;13.98;;;9.60;99.90;;;;;;5068507;28;20056;-65
2023/04/08 11:13:22;;;;;;;23.35;14.52;;;9.60;99.90;;;;;;5072183;28;20044;-64
2023/04/08 11:15:49;;;;;;;23.60;14.77;;;9.50;99.90;;;;;;5063672;28;20052;-65
2023/04/08 11:18:15;;;;;;;21.33;14.00;;;9.50;99.90;;;;;;5069675;28;20494;-65
2023/04/08 11:20:43;;;;;;;23.42;14.40;;;9.40;99.90;;;;;;5072060;28;20032;-64
2023/04/08 11:23:16;;;;;;;21.77;13.80;;;9.40;99.90;;;;;;5082408;28;20123;-64
2023/04/08 11:25:45;;;;;;;23.38;13.68;;;9.50;99.90;;;;;;5071672;28;20032;-64
2023/04/08 11:28:12;;;;;;;22.15;14.43;;;9.50;99.90;;;;;;5070438;28;20413;-65
2023/04/08 11:30:42;;;;;;;21.45;12.82;;;9.30;99.90;;;;;;5071323;28;20109;-64
2023/04/08 11:33:08;;;;;;;21.70;13.35;;;9.30;99.90;;;;;;5065291;28;20040;-64
2023/04/08 11:35:34;;;;;;;23.25;14.88;;;9.40;99.90;;;;;;5063758;28;20501;-64
2023/04/08 11:38:04;;;;;;;25.38;14.95;;;9.40;99.90;;;;;;5061990;28;20087;-66
2023/04/08 11:40:29;;;;;;;23.95;15.23;;;9.40;99.90;;;;;;5063632;28;20738;-66
2023/04/08 11:42:55;;;;;;;25.17;14.70;;;9.40;99.90;;;;;;5065551;28;20064;-64
2023/04/08 11:45:21;;;;;;;22.90;14.50;;;9.50;99.90;;;;;;5063586;28;20147;-64
2023/04/08 11:47:47;;;;;;;23.83;14.85;;;9.50;99.90;;;;;;5067479;28;20036;-64
2023/04/08 11:50:28;;;;;;;20.40;13.00;;;9.50;99.90;;;;;;5065582;28;20060;-64
2023/04/08 11:52:54;;;;;;;24.25;15.38;;;9.50;99.90;;;;;;5065428;28;20586;-64
2023/04/08 11:55:28;;;;;;;22.05;14.07;;;9.50;99.90;;;;;;5059817;28;20044;-64
2023/04/08 11:57:55;;;;;;;19.85;13.43;;;9.50;99.90;;;;;;5064772;28;20044;-64
2023/04/08 12:00:22;;;;;;;23.85;14.35;;;9.50;99.90;;;;;;5063333;28;20060;-64
2023/04/08 12:02:48;;;;;;;21.63;14.07;;;9.40;99.90;;;;;;5069615;28;20033;-65
2023/04/08 12:05:17;;;;;;;24.80;15.50;;;9.30;99.90;;;;;;5065389;28;20086;-64
2023/04/08 12:07:43;;;;;;;23.23;15.80;;;9.40;99.90;;;;;;5063557;28;20082;-64
2023/04/08 12:10:10;;;;;;;25.70;16.00;;;9.30;99.90;;;;;;5063313;28;20063;-64
2023/04/08 12:12:36;;;;;;;27.00;15.38;;;9.30;99.90;;;;;;5062704;28;20052;-64
2023/04/08 12:15:02;;;;;;;28.40;16.42;;;9.30;99.90;;;;;;5070935;28;20062;-65
2023/04/08 12:17:28;;;;;;;28.48;17.30;;;9.30;99.90;;;;;;5070398;28;20482;-64
2023/04/08 12:19:54;;;;;;;29.08;16.83;;;9.40;99.90;;;;;;5062234;28;20119;-64
2023/04/08 12:22:20;;;;;;;30.13;17.83;;;9.40;99.90;;;;;;5064823;28;20033;-64
2023/04/08 12:24:45;;;;;;;32.10;18.15;;;9.30;99.90;;;;;;5062390;28;20072;-64
2023/04/08 12:27:11;;;;;;;29.98;17.63;;;9.40;99.90;;;;;;5066263;28;20066;-64
2023/04/08 12:29:37;;;;;;;29.90;18.58;;;9.40;99.90;;;;;;5065337;28;20052;-64
2023/04/08 12:32:04;;;;;;;32.03;18.63;;;9.40;99.90;;;;;;5046713;28;20573;-65
2023/04/08 12:34:30;;;;;;;30.75;18.83;;;9.40;99.90;;;;;;5066217;28;20075;-64
2023/04/08 12:36:56;;;;;;;34.58;19.70;;;9.40;99.90;;;;;;5065208;28;20032;-65
2023/04/08 12:39:22;;;;;;;33.03;20.90;;;9.40;99.90;;;;;;5062908;28;20347;-64